sensor_id;sensor_type;location;lat;lon;timestamp;P1;durP1;ratioP1;P2;durP2;ratioP2
76125;SDS011;65174;48.138;21.002;2024-03-23T00:54:19;20.67;;;11.40;;
76125;SDS011;65174;48.138;21.002;2024-03-23T00:57:20;24.25;;;12.52;;
76125;SDS011;65174;48.138;21.002;2024-03-23T01:00:20;19.73;;;11.05;;
76125;SDS011;65174;48.138;21.002;2024-03-23T01:03:21;19.30;;;10.97;;
76125;SDS011;65174;48.138;21.002;2024-03-23T01:06:22;21.50;;;11.93;;
76125;SDS011;65174;48.138;21.002;2024-03-23T01:09:23;19.67;;;11.45;;
76125;SDS011;65174;48.138;21.002;2024-03-23T01:12:24;24.15;;;11.68;;
76125;SDS011;65174;48.138;21.002;2024-03-23T01:15:25;21.60;;;11.07;;
76125;SDS011;65174;48.138;21.002;2024-03-23T01:18:26;23.83;;;12.60;;
76125;SDS011;65174;48.138;21.002;2024-03-23T01:21:27;24.10;;;12.63;;
76125;SDS011;65174;48.138;21.002;2024-03-23T01:24:28;28.00;;;12.15;;
76125;SDS011;65174;48.138;21.002;2024-03-23T01:27:29;21.63;;;12.13;;
76125;SDS011;65174;48.138;21.002;2024-03-23T01:30:30;24.85;;;11.10;;
76125;SDS011;65174;48.138;21.002;2024-03-23T01:33:31;22.80;;;11.80;;
76125;SDS011;65174;48.138;21.002;2024-03-23T01:36:32;27.75;;;12.65;;
76125;SDS011;65174;48.138;21.002;2024-03-23T01:39:33;19.57;;;11.30;;
76125;SDS011;65174;48.138;21.002;2024-03-23T01:42:34;24.63;;;11.23;;
76125;SDS011;65174;48.138;21.002;2024-03-23T01:45:35;22.23;;;11.70;;
76125;SDS011;65174;48.138;21.002;2024-03-23T01:48:37;21.88;;;11.60;;
76125;SDS011;65174;48.138;21.002;2024-03-23T01:51:38;23.87;;;12.13;;
76125;SDS011;65174;48.138;21.002;2024-03-23T01:54:39;18.85;;;11.07;;
76125;SDS011;65174;48.138;21.002;2024-03-23T01:57:41;24.42;;;12.60;;
76125;SDS011;65174;48.138;21.002;2024-03-23T02:00:42;22.27;;;11.55;;
76125;SDS011;65174;48.138;21.002;2024-03-23T02:03:43;25.93;;;12.20;;
76125;SDS011;65174;48.138;21.002;2024-03-23T02:06:44;26.25;;;12.88;;
76125;SDS011;65174;48.138;21.002;2024-03-23T02:09:45;20.92;;;11.88;;
76125;SDS011;65174;48.138;21.002;2024-03-23T02:12:46;21.17;;;11.38;;
76125;SDS011;65174;48.138;21.002;2024-03-23T02:15:47;23.30;;;12.50;;
76125;SDS011;65174;48.138;21.002;2024-03-23T02:18:48;21.90;;;11.02;;
76125;SDS011;65174;48.138;21.002;2024-03-23T02:21:49;24.15;;;11.88;;
76125;SDS011;65174;48.138;21.002;2024-03-23T02:24:50;23.98;;;12.20;;
76125;SDS011;65174;48.138;21.002;2024-03-23T02:27:51;25.60;;;11.80;;
76125;SDS011;65174;48.138;21.002;2024-03-23T02:30:54;25.90;;;12.35;;
76125;SDS011;65174;48.138;21.002;2024-03-23T02:33:55;21.88;;;12.23;;
76125;SDS011;65174;48.138;21.002;2024-03-23T02:36:56;25.42;;;12.73;;
76125;SDS011;65174;48.138;21.002;2024-03-23T02:39:58;20.53;;;11.83;;
76125;SDS011;65174;48.138;21.002;2024-03-23T02:42:59;21.08;;;12.15;;
76125;SDS011;65174;48.138;21.002;2024-03-23T02:46:00;23.77;;;12.73;;
76125;SDS011;65174;48.138;21.002;2024-03-23T02:49:01;24.17;;;12.45;;
76125;SDS011;65174;48.138;21.002;2024-03-23T02:52:04;28.80;;;13.60;;
76125;SDS011;65174;48.138;21.002;2024-03-23T02:55:05;26.10;;;13.50;;
76125;SDS011;65174;48.138;21.002;2024-03-23T02:58:06;25.23;;;13.13;;
76125;SDS011;65174;48.138;21.002;2024-03-23T03:01:07;26.75;;;13.95;;
76125;SDS011;65174;48.138;21.002;2024-03-23T03:04:08;26.00;;;12.57;;
76125;SDS011;65174;48.138;21.002;2024-03-23T03:07:09;22.52;;;11.90;;
76125;SDS011;65174;48.138;21.002;2024-03-23T03:10:09;25.55;;;12.98;;
76125;SDS011;65174;48.138;21.002;2024-03-23T03:13:11;24.50;;;11.90;;
76125;SDS011;65174;48.138;21.002;2024-03-23T03:16:12;31.13;;;13.90;;
76125;SDS011;65174;48.138;21.002;2024-03-23T03:19:13;26.10;;;13.25;;
76125;SDS011;65174;48.138;21.002;2024-03-23T03:22:14;31.80;;;13.63;;
76125;SDS011;65174;48.138;21.002;2024-03-23T03:25:16;25.80;;;13.30;;
76125;SDS011;65174;48.138;21.002;2024-03-23T03:28:17;28.80;;;13.53;;
76125;SDS011;65174;48.138;21.002;2024-03-23T03:31:18;24.48;;;13.05;;
76125;SDS011;65174;48.138;21.002;2024-03-23T03:34:19;21.58;;;12.38;;
76125;SDS011;65174;48.138;21.002;2024-03-23T03:37:20;26.10;;;13.43;;
76125;SDS011;65174;48.138;21.002;2024-03-23T03:40:23;24.00;;;13.00;;
76125;SDS011;65174;48.138;21.002;2024-03-23T03:43:25;23.73;;;12.30;;
76125;SDS011;65174;48.138;21.002;2024-03-23T03:46:27;31.20;;;13.73;;
76125;SDS011;65174;48.138;21.002;2024-03-23T03:49:28;23.25;;;12.90;;
76125;SDS011;65174;48.138;21.002;2024-03-23T03:52:29;27.27;;;13.50;;
76125;SDS011;65174;48.138;21.002;2024-03-23T03:55:30;27.90;;;14.20;;
76125;SDS011;65174;48.138;21.002;2024-03-23T03:58:31;24.83;;;13.88;;
76125;SDS011;65174;48.138;21.002;2024-03-23T04:01:32;26.35;;;13.20;;
76125;SDS011;65174;48.138;21.002;2024-03-23T04:04:33;29.92;;;14.60;;
76125;SDS011;65174;48.138;21.002;2024-03-23T04:07:34;27.07;;;14.00;;
76125;SDS011;65174;48.138;21.002;2024-03-23T04:10:35;24.73;;;13.02;;
76125;SDS011;65174;48.138;21.002;2024-03-23T04:13:36;28.63;;;12.95;;
76125;SDS011;65174;48.138;21.002;2024-03-23T04:16:37;24.43;;;13.40;;
76125;SDS011;65174;48.138;21.002;2024-03-23T04:19:38;25.17;;;13.05;;
76125;SDS011;65174;48.138;21.002;2024-03-23T04:22:40;20.88;;;11.60;;
76125;SDS011;65174;48.138;21.002;2024-03-23T04:25:41;25.80;;;13.43;;
76125;SDS011;65174;48.138;21.002;2024-03-23T04:28:42;20.90;;;11.80;;
76125;SDS011;65174;48.138;21.002;2024-03-23T04:31:43;24.35;;;12.13;;
76125;SDS011;65174;48.138;21.002;2024-03-23T04:34:44;21.33;;;12.20;;
76125;SDS011;65174;48.138;21.002;2024-03-23T04:37:46;23.77;;;10.77;;
76125;SDS011;65174;48.138;21.002;2024-03-23T04:40:56;28.87;;;13.10;;
76125;SDS011;65174;48.138;21.002;2024-03-23T04:43:58;28.40;;;12.38;;
76125;SDS011;65174;48.138;21.002;2024-03-23T04:46:59;27.00;;;12.43;;
76125;SDS011;65174;48.138;21.002;2024-03-23T04:50:01;23.60;;;12.43;;
76125;SDS011;65174;48.138;21.002;2024-03-23T04:53:03;28.60;;;13.20;;
76125;SDS011;65174;48.138;21.002;2024-03-23T04:56:04;31.58;;;14.25;;
76125;SDS011;65174;48.138;21.002;2024-03-23T04:59:05;22.05;;;11.82;;
76125;SDS011;65174;48.138;21.002;2024-03-23T05:02:06;25.40;;;13.40;;
76125;SDS011;65174;48.138;21.002;2024-03-23T05:05:07;25.85;;;13.10;;
76125;SDS011;65174;48.138;21.002;2024-03-23T05:08:08;19.55;;;11.57;;
76125;SDS011;65174;48.138;21.002;2024-03-23T05:11:09;22.10;;;13.00;;
76125;SDS011;65174;48.138;21.002;2024-03-23T05:14:12;25.38;;;12.60;;
76125;SDS011;65174;48.138;21.002;2024-03-23T05:17:13;30.02;;;14.68;;
76125;SDS011;65174;48.138;21.002;2024-03-23T05:20:14;29.02;;;14.18;;
76125;SDS011;65174;48.138;21.002;2024-03-23T05:23:17;25.58;;;13.25;;
76125;SDS011;65174;48.138;21.002;2024-03-23T05:26:17;29.63;;;14.77;;
76125;SDS011;65174;48.138;21.002;2024-03-23T05:29:18;23.73;;;11.95;;
76125;SDS011;65174;48.138;21.002;2024-03-23T05:32:19;26.25;;;13.70;;
76125;SDS011;65174;48.138;21.002;2024-03-23T05:35:21;24.50;;;12.10;;
76125;SDS011;65174;48.138;21.002;2024-03-23T05:38:22;23.42;;;12.27;;
76125;SDS011;65174;48.138;21.002;2024-03-23T05:41:23;25.67;;;13.40;;
76125;SDS011;65174;48.138;21.002;2024-03-23T05:44:24;25.50;;;11.65;;
76125;SDS011;65174;48.138;21.002;2024-03-23T05:47:25;29.87;;;14.07;;
76125;SDS011;65174;48.138;21.002;2024-03-23T05:50:26;24.95;;;13.23;;
76125;SDS011;65174;48.138;21.002;2024-03-23T05:53:27;27.92;;;12.70;;
76125;SDS011;65174;48.138;21.002;2024-03-23T05:56:30;22.38;;;12.85;;
76125;SDS011;65174;48.138;21.002;2024-03-23T05:59:31;28.43;;;13.83;;
76125;SDS011;65174;48.138;21.002;2024-03-23T06:02:32;29.08;;;12.30;;
76125;SDS011;65174;48.138;21.002;2024-03-23T06:05:33;28.67;;;15.05;;
76125;SDS011;65174;48.138;21.002;2024-03-23T06:08:34;28.17;;;12.73;;
76125;SDS011;65174;48.138;21.002;2024-03-23T06:11:36;23.13;;;12.60;;
76125;SDS011;65174;48.138;21.002;2024-03-23T06:14:37;25.98;;;14.68;;
76125;SDS011;65174;48.138;21.002;2024-03-23T06:17:38;21.02;;;12.40;;
76125;SDS011;65174;48.138;21.002;2024-03-23T06:20:39;22.87;;;11.43;;
76125;SDS011;65174;48.138;21.002;2024-03-23T06:23:41;28.13;;;13.68;;
76125;SDS011;65174;48.138;21.002;2024-03-23T06:26:43;29.27;;;16.20;;
76125;SDS011;65174;48.138;21.002;2024-03-23T06:29:44;28.10;;;14.93;;
76125;SDS011;65174;48.138;21.002;2024-03-23T06:32:45;30.90;;;14.88;;
76125;SDS011;65174;48.138;21.002;2024-03-23T06:35:49;31.03;;;13.33;;
76125;SDS011;65174;48.138;21.002;2024-03-23T06:38:52;24.70;;;14.00;;
76125;SDS011;65174;48.138;21.002;2024-03-23T06:41:53;28.50;;;14.32;;
76125;SDS011;65174;48.138;21.002;2024-03-23T06:44:55;28.55;;;14.90;;
76125;SDS011;65174;48.138;21.002;2024-03-23T06:47:56;23.53;;;12.13;;
76125;SDS011;65174;48.138;21.002;2024-03-23T06:50:58;28.17;;;13.23;;
76125;SDS011;65174;48.138;21.002;2024-03-23T06:53:59;18.60;;;10.52;;
76125;SDS011;65174;48.138;21.002;2024-03-23T06:57:00;28.38;;;13.60;;
76125;SDS011;65174;48.138;21.002;2024-03-23T07:00:01;21.07;;;11.57;;
76125;SDS011;65174;48.138;21.002;2024-03-23T07:03:06;21.75;;;12.00;;
76125;SDS011;65174;48.138;21.002;2024-03-23T07:06:09;18.67;;;9.85;;
76125;SDS011;65174;48.138;21.002;2024-03-23T07:09:11;25.13;;;12.80;;
76125;SDS011;65174;48.138;21.002;2024-03-23T07:12:12;16.37;;;10.67;;
76125;SDS011;65174;48.138;21.002;2024-03-23T07:15:13;21.48;;;12.13;;
76125;SDS011;65174;48.138;21.002;2024-03-23T07:18:14;24.65;;;11.07;;
76125;SDS011;65174;48.138;21.002;2024-03-23T07:21:15;16.70;;;10.82;;
76125;SDS011;65174;48.138;21.002;2024-03-23T07:24:16;18.17;;;10.77;;
76125;SDS011;65174;48.138;21.002;2024-03-23T07:27:17;21.58;;;10.63;;
76125;SDS011;65174;48.138;21.002;2024-03-23T07:30:17;17.05;;;7.78;;
76125;SDS011;65174;48.138;21.002;2024-03-23T07:33:18;16.03;;;8.67;;
76125;SDS011;65174;48.138;21.002;2024-03-23T07:36:19;24.17;;;12.27;;
76125;SDS011;65174;48.138;21.002;2024-03-23T07:39:20;22.88;;;12.80;;
76125;SDS011;65174;48.138;21.002;2024-03-23T07:42:21;26.40;;;13.95;;
76125;SDS011;65174;48.138;21.002;2024-03-23T07:45:22;12.50;;;7.47;;
76125;SDS011;65174;48.138;21.002;2024-03-23T07:48:23;23.55;;;13.43;;
76125;SDS011;65174;48.138;21.002;2024-03-23T08:28:44;21.17;;;12.00;;
76125;SDS011;65174;48.138;21.002;2024-03-23T08:31:45;24.65;;;12.93;;
76125;SDS011;65174;48.138;21.002;2024-03-23T08:34:46;22.30;;;13.50;;
76125;SDS011;65174;48.138;21.002;2024-03-23T08:37:46;25.08;;;13.18;;
76125;SDS011;65174;48.138;21.002;2024-03-23T08:40:47;22.67;;;12.65;;
76125;SDS011;65174;48.138;21.002;2024-03-23T08:43:48;19.35;;;11.85;;
76125;SDS011;65174;48.138;21.002;2024-03-23T08:46:49;21.87;;;12.80;;
76125;SDS011;65174;48.138;21.002;2024-03-23T08:49:50;32.97;;;12.48;;
76125;SDS011;65174;48.138;21.002;2024-03-23T08:52:51;20.10;;;11.90;;
76125;SDS011;65174;48.138;21.002;2024-03-23T08:55:53;17.37;;;11.20;;
76125;SDS011;65174;48.138;21.002;2024-03-23T08:58:54;22.30;;;12.45;;
76125;SDS011;65174;48.138;21.002;2024-03-23T09:01:55;26.85;;;11.95;;
76125;SDS011;65174;48.138;21.002;2024-03-23T09:04:59;21.63;;;12.40;;
76125;SDS011;65174;48.138;21.002;2024-03-23T09:08:04;17.83;;;10.50;;
76125;SDS011;65174;48.138;21.002;2024-03-23T09:11:07;19.45;;;11.00;;
76125;SDS011;65174;48.138;21.002;2024-03-23T09:14:09;19.75;;;11.13;;
76125;SDS011;65174;48.138;21.002;2024-03-23T09:17:10;17.73;;;10.82;;
76125;SDS011;65174;48.138;21.002;2024-03-23T09:20:11;17.67;;;11.10;;
76125;SDS011;65174;48.138;21.002;2024-03-23T09:23:12;20.02;;;10.60;;
76125;SDS011;65174;48.138;21.002;2024-03-23T09:26:13;18.92;;;10.55;;
76125;SDS011;65174;48.138;21.002;2024-03-23T09:29:14;36.87;;;19.20;;
76125;SDS011;65174;48.138;21.002;2024-03-23T09:32:14;26.45;;;14.52;;
76125;SDS011;65174;48.138;21.002;2024-03-23T09:35:15;24.42;;;14.60;;
76125;SDS011;65174;48.138;21.002;2024-03-23T09:38:16;130.45;;;46.72;;
76125;SDS011;65174;48.138;21.002;2024-03-23T09:41:17;50.63;;;21.20;;
76125;SDS011;65174;48.138;21.002;2024-03-23T09:44:18;22.98;;;12.50;;
76125;SDS011;65174;48.138;21.002;2024-03-23T09:47:19;30.55;;;12.00;;
76125;SDS011;65174;48.138;21.002;2024-03-23T09:50:21;30.83;;;15.82;;
76125;SDS011;65174;48.138;21.002;2024-03-23T09:53:22;21.67;;;12.57;;
76125;SDS011;65174;48.138;21.002;2024-03-23T09:56:23;23.10;;;12.47;;
76125;SDS011;65174;48.138;21.002;2024-03-23T09:59:24;32.92;;;13.73;;
76125;SDS011;65174;48.138;21.002;2024-03-23T10:02:27;16.42;;;10.35;;
76125;SDS011;65174;48.138;21.002;2024-03-23T10:05:30;16.77;;;11.13;;
76125;SDS011;65174;48.138;21.002;2024-03-23T10:08:37;16.63;;;9.13;;
76125;SDS011;65174;48.138;21.002;2024-03-23T10:11:38;17.55;;;10.75;;
76125;SDS011;65174;48.138;21.002;2024-03-23T10:14:42;15.57;;;9.30;;
76125;SDS011;65174;48.138;21.002;2024-03-23T10:17:43;26.35;;;10.90;;
76125;SDS011;65174;48.138;21.002;2024-03-23T10:24:17;19.10;;;10.40;;
76125;SDS011;65174;48.138;21.002;2024-03-23T10:27:18;16.50;;;10.18;;
76125;SDS011;65174;48.138;21.002;2024-03-23T10:30:20;16.80;;;10.13;;
76125;SDS011;65174;48.138;21.002;2024-03-23T10:33:22;18.88;;;11.07;;
76125;SDS011;65174;48.138;21.002;2024-03-23T10:36:24;17.67;;;10.70;;
76125;SDS011;65174;48.138;21.002;2024-03-23T10:39:26;18.58;;;10.60;;
76125;SDS011;65174;48.138;21.002;2024-03-23T10:42:29;16.75;;;11.15;;
76125;SDS011;65174;48.138;21.002;2024-03-23T10:45:31;20.05;;;11.55;;
76125;SDS011;65174;48.138;21.002;2024-03-23T10:48:32;19.23;;;11.23;;
76125;SDS011;65174;48.138;21.002;2024-03-23T10:51:34;19.53;;;9.97;;
76125;SDS011;65174;48.138;21.002;2024-03-23T10:54:35;16.90;;;11.23;;
76125;SDS011;65174;48.138;21.002;2024-03-23T10:57:42;19.25;;;11.48;;
76125;SDS011;65174;48.138;21.002;2024-03-23T11:00:48;26.77;;;10.88;;
76125;SDS011;65174;48.138;21.002;2024-03-23T11:03:51;16.27;;;8.82;;
76125;SDS011;65174;48.138;21.002;2024-03-23T11:06:52;22.53;;;9.73;;
76125;SDS011;65174;48.138;21.002;2024-03-23T11:09:53;17.30;;;9.48;;
76125;SDS011;65174;48.138;21.002;2024-03-23T11:12:58;16.45;;;10.60;;
76125;SDS011;65174;48.138;21.002;2024-03-23T11:19:36;17.20;;;9.18;;
76125;SDS011;65174;48.138;21.002;2024-03-23T11:25:41;15.43;;;8.63;;
76125;SDS011;65174;48.138;21.002;2024-03-23T11:28:42;15.10;;;9.07;;
76125;SDS011;65174;48.138;21.002;2024-03-23T11:31:47;13.55;;;8.27;;
76125;SDS011;65174;48.138;21.002;2024-03-23T11:34:49;15.77;;;8.40;;
76125;SDS011;65174;48.138;21.002;2024-03-23T11:41:19;12.00;;;8.60;;
76125;SDS011;65174;48.138;21.002;2024-03-23T11:44:25;14.95;;;8.98;;
76125;SDS011;65174;48.138;21.002;2024-03-23T11:47:27;15.25;;;7.40;;
76125;SDS011;65174;48.138;21.002;2024-03-23T11:50:28;15.33;;;7.80;;
76125;SDS011;65174;48.138;21.002;2024-03-23T11:53:29;12.23;;;7.28;;
76125;SDS011;65174;48.138;21.002;2024-03-23T11:56:30;14.20;;;8.18;;
76125;SDS011;65174;48.138;21.002;2024-03-23T11:59:35;14.50;;;8.87;;
76125;SDS011;65174;48.138;21.002;2024-03-23T12:02:44;11.52;;;7.25;;
76125;SDS011;65174;48.138;21.002;2024-03-23T12:05:49;11.77;;;7.57;;
76125;SDS011;65174;48.138;21.002;2024-03-23T12:09:05;11.60;;;6.95;;
76125;SDS011;65174;48.138;21.002;2024-03-23T12:12:10;12.23;;;7.65;;
76125;SDS011;65174;48.138;21.002;2024-03-23T12:15:15;9.33;;;6.33;;
76125;SDS011;65174;48.138;21.002;2024-03-23T12:18:17;11.15;;;5.97;;
76125;SDS011;65174;48.138;21.002;2024-03-23T12:21:18;8.48;;;5.47;;
76125;SDS011;65174;48.138;21.002;2024-03-23T12:24:19;11.55;;;6.85;;
76125;SDS011;65174;48.138;21.002;2024-03-23T12:27:20;9.30;;;5.60;;
76125;SDS011;65174;48.138;21.002;2024-03-23T12:30:21;17.10;;;10.30;;
76125;SDS011;65174;48.138;21.002;2024-03-23T12:33:22;7.25;;;5.53;;
76125;SDS011;65174;48.138;21.002;2024-03-23T12:36:23;8.73;;;5.82;;
76125;SDS011;65174;48.138;21.002;2024-03-23T12:39:24;9.23;;;5.78;;
76125;SDS011;65174;48.138;21.002;2024-03-23T12:42:25;9.17;;;5.57;;
76125;SDS011;65174;48.138;21.002;2024-03-23T12:45:26;6.60;;;4.47;;
76125;SDS011;65174;48.138;21.002;2024-03-23T12:48:27;8.48;;;4.68;;
76125;SDS011;65174;48.138;21.002;2024-03-23T12:51:29;7.43;;;4.70;;
76125;SDS011;65174;48.138;21.002;2024-03-23T12:54:29;7.23;;;4.97;;
76125;SDS011;65174;48.138;21.002;2024-03-23T12:57:32;12.43;;;5.45;;
76125;SDS011;65174;48.138;21.002;2024-03-23T13:00:33;6.47;;;4.28;;
76125;SDS011;65174;48.138;21.002;2024-03-23T13:03:34;6.68;;;4.45;;
76125;SDS011;65174;48.138;21.002;2024-03-23T13:06:35;9.35;;;5.22;;
76125;SDS011;65174;48.138;21.002;2024-03-23T13:09:39;8.67;;;4.50;;
76125;SDS011;65174;48.138;21.002;2024-03-23T13:12:40;11.40;;;4.90;;
76125;SDS011;65174;48.138;21.002;2024-03-23T13:15:41;10.52;;;5.20;;
76125;SDS011;65174;48.138;21.002;2024-03-23T13:18:42;9.68;;;5.00;;
76125;SDS011;65174;48.138;21.002;2024-03-23T13:21:43;9.05;;;5.60;;
76125;SDS011;65174;48.138;21.002;2024-03-23T13:24:44;12.80;;;5.23;;
76125;SDS011;65174;48.138;21.002;2024-03-23T13:27:45;9.77;;;6.10;;
76125;SDS011;65174;48.138;21.002;2024-03-23T13:30:52;10.05;;;5.45;;
76125;SDS011;65174;48.138;21.002;2024-03-23T13:33:54;23.98;;;5.18;;
76125;SDS011;65174;48.138;21.002;2024-03-23T13:36:55;10.07;;;4.90;;
76125;SDS011;65174;48.138;21.002;2024-03-23T13:39:59;11.45;;;5.40;;
76125;SDS011;65174;48.138;21.002;2024-03-23T13:43:01;7.75;;;5.22;;
76125;SDS011;65174;48.138;21.002;2024-03-23T13:46:02;12.52;;;5.72;;
76125;SDS011;65174;48.138;21.002;2024-03-23T13:49:03;9.80;;;6.03;;
76125;SDS011;65174;48.138;21.002;2024-03-23T13:52:05;15.20;;;7.20;;
76125;SDS011;65174;48.138;21.002;2024-03-23T13:55:07;12.77;;;6.00;;
76125;SDS011;65174;48.138;21.002;2024-03-23T13:58:09;22.92;;;5.57;;
76125;SDS011;65174;48.138;21.002;2024-03-23T14:01:13;15.32;;;6.43;;
76125;SDS011;65174;48.138;21.002;2024-03-23T14:04:15;16.97;;;7.73;;
76125;SDS011;65174;48.138;21.002;2024-03-23T14:07:23;48.30;;;18.05;;
76125;SDS011;65174;48.138;21.002;2024-03-23T14:10:24;122.78;;;40.40;;
76125;SDS011;65174;48.138;21.002;2024-03-23T14:13:25;82.32;;;28.65;;
76125;SDS011;65174;48.138;21.002;2024-03-23T14:16:26;42.20;;;17.63;;
76125;SDS011;65174;48.138;21.002;2024-03-23T14:19:27;24.92;;;10.13;;
76125;SDS011;65174;48.138;21.002;2024-03-23T14:22:28;35.80;;;11.20;;
76125;SDS011;65174;48.138;21.002;2024-03-23T14:25:31;35.97;;;10.07;;
76125;SDS011;65174;48.138;21.002;2024-03-23T14:28:33;14.68;;;7.63;;
76125;SDS011;65174;48.138;21.002;2024-03-23T14:31:34;23.70;;;8.52;;
76125;SDS011;65174;48.138;21.002;2024-03-23T14:34:36;15.88;;;7.43;;
76125;SDS011;65174;48.138;21.002;2024-03-23T14:37:37;15.25;;;7.25;;
76125;SDS011;65174;48.138;21.002;2024-03-23T14:40:38;14.67;;;6.40;;
76125;SDS011;65174;48.138;21.002;2024-03-23T14:43:39;18.55;;;7.22;;
76125;SDS011;65174;48.138;21.002;2024-03-23T14:46:40;11.82;;;6.22;;
76125;SDS011;65174;48.138;21.002;2024-03-23T14:49:41;13.07;;;6.03;;
76125;SDS011;65174;48.138;21.002;2024-03-23T14:52:43;26.30;;;9.07;;
76125;SDS011;65174;48.138;21.002;2024-03-23T14:55:48;18.88;;;7.88;;
76125;SDS011;65174;48.138;21.002;2024-03-23T14:58:53;14.20;;;6.55;;
76125;SDS011;65174;48.138;21.002;2024-03-23T15:01:56;15.57;;;8.13;;
76125;SDS011;65174;48.138;21.002;2024-03-23T15:04:58;13.88;;;7.55;;
76125;SDS011;65174;48.138;21.002;2024-03-23T15:07:59;14.60;;;6.90;;
76125;SDS011;65174;48.138;21.002;2024-03-23T15:11:00;12.90;;;6.10;;
76125;SDS011;65174;48.138;21.002;2024-03-23T15:14:05;8.37;;;5.67;;
76125;SDS011;65174;48.138;21.002;2024-03-23T15:17:07;11.38;;;5.53;;
76125;SDS011;65174;48.138;21.002;2024-03-23T15:20:10;8.20;;;5.57;;
76125;SDS011;65174;48.138;21.002;2024-03-23T15:23:12;9.27;;;5.40;;
76125;SDS011;65174;48.138;21.002;2024-03-23T15:26:13;10.23;;;5.95;;
76125;SDS011;65174;48.138;21.002;2024-03-23T15:29:14;13.80;;;6.50;;
76125;SDS011;65174;48.138;21.002;2024-03-23T15:32:17;11.60;;;6.43;;
76125;SDS011;65174;48.138;21.002;2024-03-23T15:35:18;9.65;;;6.03;;
76125;SDS011;65174;48.138;21.002;2024-03-23T15:38:23;8.70;;;5.90;;
76125;SDS011;65174;48.138;21.002;2024-03-23T15:41:24;17.10;;;6.40;;
76125;SDS011;65174;48.138;21.002;2024-03-23T15:44:25;11.68;;;6.20;;
76125;SDS011;65174;48.138;21.002;2024-03-23T15:47:26;15.25;;;7.40;;
76125;SDS011;65174;48.138;21.002;2024-03-23T15:50:27;12.10;;;7.60;;
76125;SDS011;65174;48.138;21.002;2024-03-23T15:53:28;13.37;;;6.57;;
76125;SDS011;65174;48.138;21.002;2024-03-23T15:56:29;9.60;;;5.60;;
76125;SDS011;65174;48.138;21.002;2024-03-23T15:59:30;10.63;;;5.50;;
76125;SDS011;65174;48.138;21.002;2024-03-23T16:02:31;15.75;;;6.68;;
76125;SDS011;65174;48.138;21.002;2024-03-23T16:05:32;10.10;;;5.47;;
76125;SDS011;65174;48.138;21.002;2024-03-23T16:08:32;7.60;;;5.38;;
76125;SDS011;65174;48.138;21.002;2024-03-23T16:11:34;13.88;;;5.57;;
76125;SDS011;65174;48.138;21.002;2024-03-23T16:14:35;10.10;;;5.30;;
76125;SDS011;65174;48.138;21.002;2024-03-23T16:17:36;12.35;;;5.88;;
76125;SDS011;65174;48.138;21.002;2024-03-23T16:20:37;8.75;;;5.25;;
76125;SDS011;65174;48.138;21.002;2024-03-23T16:23:38;8.35;;;5.40;;
76125;SDS011;65174;48.138;21.002;2024-03-23T16:26:39;8.33;;;5.37;;
76125;SDS011;65174;48.138;21.002;2024-03-23T16:29:40;11.70;;;5.38;;
76125;SDS011;65174;48.138;21.002;2024-03-23T16:32:42;9.20;;;4.93;;
76125;SDS011;65174;48.138;21.002;2024-03-23T16:35:43;10.65;;;5.47;;
76125;SDS011;65174;48.138;21.002;2024-03-23T16:38:45;11.60;;;4.93;;
76125;SDS011;65174;48.138;21.002;2024-03-23T16:41:47;11.20;;;5.30;;
76125;SDS011;65174;48.138;21.002;2024-03-23T16:44:49;8.93;;;5.60;;
76125;SDS011;65174;48.138;21.002;2024-03-23T16:47:50;11.07;;;5.75;;
76125;SDS011;65174;48.138;21.002;2024-03-23T16:50:51;13.17;;;6.07;;
76125;SDS011;65174;48.138;21.002;2024-03-23T16:53:52;11.13;;;5.70;;
76125;SDS011;65174;48.138;21.002;2024-03-23T16:56:56;11.90;;;7.63;;
76125;SDS011;65174;48.138;21.002;2024-03-23T16:59:57;9.55;;;7.35;;
76125;SDS011;65174;48.138;21.002;2024-03-23T17:02:58;9.50;;;5.95;;
76125;SDS011;65174;48.138;21.002;2024-03-23T17:06:02;21.93;;;8.63;;
76125;SDS011;65174;48.138;21.002;2024-03-23T17:09:10;14.73;;;8.60;;
76125;SDS011;65174;48.138;21.002;2024-03-23T17:12:12;10.85;;;7.32;;
76125;SDS011;65174;48.138;21.002;2024-03-23T17:15:13;9.65;;;6.15;;
76125;SDS011;65174;48.138;21.002;2024-03-23T17:18:15;9.73;;;6.13;;
76125;SDS011;65174;48.138;21.002;2024-03-23T17:21:16;9.07;;;5.63;;
76125;SDS011;65174;48.138;21.002;2024-03-23T17:45:13;17.45;;;7.28;;
76125;SDS011;65174;48.138;21.002;2024-03-23T17:48:14;11.65;;;6.63;;
76125;SDS011;65174;48.138;21.002;2024-03-23T17:51:15;9.30;;;4.90;;
76125;SDS011;65174;48.138;21.002;2024-03-23T17:54:18;7.32;;;5.07;;
76125;SDS011;65174;48.138;21.002;2024-03-23T17:57:20;8.18;;;4.82;;
76125;SDS011;65174;48.138;21.002;2024-03-23T18:00:21;6.03;;;4.63;;
76125;SDS011;65174;48.138;21.002;2024-03-23T18:03:22;11.47;;;5.80;;
76125;SDS011;65174;48.138;21.002;2024-03-23T18:06:23;9.63;;;5.43;;
76125;SDS011;65174;48.138;21.002;2024-03-23T18:09:24;7.20;;;4.50;;
76125;SDS011;65174;48.138;21.002;2024-03-23T18:12:25;7.57;;;4.53;;
76125;SDS011;65174;48.138;21.002;2024-03-23T18:15:27;10.35;;;4.30;;
76125;SDS011;65174;48.138;21.002;2024-03-23T18:18:28;9.43;;;4.50;;
76125;SDS011;65174;48.138;21.002;2024-03-23T18:21:30;9.13;;;5.10;;
76125;SDS011;65174;48.138;21.002;2024-03-23T18:24:31;8.60;;;4.93;;
76125;SDS011;65174;48.138;21.002;2024-03-23T18:27:32;8.85;;;5.05;;
76125;SDS011;65174;48.138;21.002;2024-03-23T18:30:33;18.80;;;5.10;;
76125;SDS011;65174;48.138;21.002;2024-03-23T18:33:36;10.87;;;4.97;;
76125;SDS011;65174;48.138;21.002;2024-03-23T18:36:40;9.68;;;4.18;;
76125;SDS011;65174;48.138;21.002;2024-03-23T18:39:42;6.25;;;4.45;;
76125;SDS011;65174;48.138;21.002;2024-03-23T18:42:43;12.02;;;4.88;;
76125;SDS011;65174;48.138;21.002;2024-03-23T18:45:46;11.23;;;6.43;;
76125;SDS011;65174;48.138;21.002;2024-03-23T18:48:48;6.63;;;4.17;;
76125;SDS011;65174;48.138;21.002;2024-03-23T18:51:49;7.57;;;4.75;;
76125;SDS011;65174;48.138;21.002;2024-03-23T18:54:51;35.97;;;5.68;;
76125;SDS011;65174;48.138;21.002;2024-03-23T18:57:52;11.98;;;4.57;;
76125;SDS011;65174;48.138;21.002;2024-03-23T19:00:55;14.80;;;6.05;;
76125;SDS011;65174;48.138;21.002;2024-03-23T19:03:57;38.40;;;7.60;;
76125;SDS011;65174;48.138;21.002;2024-03-23T19:06:58;8.63;;;4.93;;
76125;SDS011;65174;48.138;21.002;2024-03-23T19:10:00;7.38;;;4.82;;
76125;SDS011;65174;48.138;21.002;2024-03-23T19:13:01;10.10;;;6.78;;
76125;SDS011;65174;48.138;21.002;2024-03-23T19:16:03;7.28;;;5.32;;
76125;SDS011;65174;48.138;21.002;2024-03-23T19:19:07;10.63;;;4.63;;
76125;SDS011;65174;48.138;21.002;2024-03-23T19:22:08;7.68;;;4.40;;
76125;SDS011;65174;48.138;21.002;2024-03-23T19:25:09;7.70;;;4.50;;
76125;SDS011;65174;48.138;21.002;2024-03-23T19:28:11;6.43;;;4.57;;
76125;SDS011;65174;48.138;21.002;2024-03-23T19:31:12;6.07;;;3.97;;
76125;SDS011;65174;48.138;21.002;2024-03-23T19:34:15;9.37;;;4.40;;
76125;SDS011;65174;48.138;21.002;2024-03-23T19:37:21;4.88;;;3.65;;
76125;SDS011;65174;48.138;21.002;2024-03-23T19:40:31;8.45;;;4.40;;